createdAt,value
2019-05-11T00:00:25.130Z,12.50
2019-05-11T00:03:04.527Z,12.50
2019-05-11T00:05:36.096Z,12.50
2019-05-11T00:08:05.995Z,12.40
2019-05-11T00:10:40.839Z,12.40
2019-05-11T00:13:15.544Z,12.40
2019-05-11T00:15:50.169Z,12.30
2019-05-11T00:18:22.051Z,12.40
2019-05-11T00:20:53.706Z,12.30
2019-05-11T00:23:28.615Z,12.30
2019-05-11T00:26:40.045Z,12.30
2019-05-11T00:29:10.864Z,12.30
2019-05-11T00:31:43.132Z,12.20
2019-05-11T00:34:17.859Z,12.20
2019-05-11T00:36:49.718Z,12.20
2019-05-11T00:39:20.455Z,12.20
2019-05-11T00:41:49.551Z,12.20
2019-05-11T00:44:18.339Z,12.20
2019-05-11T00:46:47.227Z,12.20
2019-05-11T00:49:19.189Z,12.20
2019-05-11T00:51:50.026Z,12.20
2019-05-11T00:54:24.853Z,12.20
2019-05-11T00:56:56.519Z,12.20
2019-05-11T00:59:26.325Z,12.20
2019-05-11T01:02:01.129Z,12.20
2019-05-11T01:04:33.214Z,12.20
2019-05-11T01:07:07.868Z,12.20
2019-05-11T01:09:36.710Z,12.20
2019-05-11T01:12:05.485Z,12.20
2019-05-11T01:14:37.046Z,12.20
2019-05-11T01:17:08.885Z,12.20
2019-05-11T01:19:38.724Z,12.20
2019-05-11T01:22:10.271Z,12.20
2019-05-11T01:24:44.923Z,12.20
2019-05-11T01:27:19.648Z,12.10
2019-05-11T01:29:54.377Z,12.10
2019-05-11T01:32:26.545Z,12.10
2019-05-11T01:34:57.984Z,12.10
2019-05-11T01:37:32.696Z,12.00
2019-05-11T01:40:01.614Z,12.00
2019-05-11T01:42:30.376Z,12.10
2019-05-11T01:44:59.391Z,12.00
2019-05-11T01:47:34.195Z,12.00
2019-05-11T01:50:09.130Z,12.00
2019-05-11T01:52:40.705Z,12.00
2019-05-11T01:55:12.359Z,12.00
2019-05-11T01:57:43.912Z,12.00
2019-05-11T02:00:18.685Z,12.10
2019-05-11T02:02:50.091Z,12.00
2019-05-11T02:05:28.520Z,12.00
2019-05-11T02:08:03.334Z,12.00
2019-05-11T02:10:38.064Z,12.00
2019-05-11T02:13:12.665Z,12.00
2019-05-11T02:15:44.648Z,12.00
2019-05-11T02:18:16.199Z,12.00
2019-05-11T02:20:47.753Z,12.00
2019-05-11T02:23:29.962Z,12.00
2019-05-11T02:26:01.509Z,12.00
2019-05-11T02:28:30.259Z,12.00
2019-05-11T02:30:59.059Z,11.90
2019-05-11T02:33:27.932Z,11.90
2019-05-11T02:35:56.869Z,11.90
2019-05-11T02:38:25.760Z,11.90
2019-05-11T02:40:54.756Z,11.90
2019-05-11T02:43:29.461Z,11.80
2019-05-11T02:46:04.109Z,11.80
2019-05-11T02:48:38.709Z,11.70
2019-05-11T02:51:11.472Z,11.70
2019-05-11T02:53:43.068Z,11.70
2019-05-11T02:56:13.896Z,11.70
2019-05-11T02:58:48.501Z,11.60
2019-05-11T03:01:23.455Z,11.60
2019-05-11T03:03:53.257Z,11.60
2019-05-11T03:06:24.719Z,11.60
2019-05-11T03:08:59.345Z,11.60
2019-05-11T03:11:33.966Z,11.50
2019-05-11T03:14:02.740Z,11.50
2019-05-11T03:16:32.540Z,11.50
2019-05-11T03:19:01.560Z,11.40
2019-05-11T03:21:30.430Z,11.40
2019-05-11T03:24:14.064Z,11.40
2019-05-11T03:26:48.917Z,11.30
2019-05-11T03:29:20.857Z,11.30
2019-05-11T03:31:55.429Z,11.20
2019-05-11T03:34:29.056Z,11.20
2019-05-11T03:36:57.955Z,11.20
2019-05-11T03:39:29.856Z,11.20
2019-05-11T03:42:16.865Z,11.10
2019-05-11T03:44:48.425Z,11.10
2019-05-11T03:47:20.485Z,11.10
2019-05-11T03:49:55.313Z,11.10
2019-05-11T03:52:26.739Z,11.10
2019-05-11T03:55:01.474Z,11.10
2019-05-11T03:57:32.940Z,11.10
2019-05-11T04:00:01.711Z,11.10
2019-05-11T04:02:36.472Z,11.10
2019-05-11T04:05:08.350Z,11.10
2019-05-11T04:07:39.140Z,11.10
2019-05-11T04:10:09.480Z,11.10
2019-05-11T04:12:49.643Z,11.10
2019-05-11T04:15:20.437Z,11.10
2019-05-11T04:17:49.348Z,11.10
2019-05-11T04:20:24.089Z,11.10
2019-05-11T04:22:58.698Z,11.10
2019-05-11T04:25:30.151Z,11.10
2019-05-11T04:27:58.929Z,11.10
2019-05-11T04:30:27.847Z,11.20
2019-05-11T04:32:56.713Z,11.20
2019-05-11T04:35:25.622Z,11.20
2019-05-11T04:37:54.451Z,11.20
2019-05-11T04:40:26.372Z,11.20
2019-05-11T04:42:56.310Z,11.30
2019-05-11T04:45:27.454Z,11.30
2019-05-11T04:47:56.297Z,11.40
2019-05-11T04:50:27.752Z,11.40
2019-05-11T04:52:59.739Z,11.40
2019-05-11T04:55:29.747Z,11.40
2019-05-11T04:57:59.763Z,11.50
2019-05-11T05:00:31.832Z,11.50
2019-05-11T05:03:01.616Z,11.50
2019-05-11T05:05:36.373Z,11.60
2019-05-11T05:08:09.539Z,11.60
2019-05-11T05:10:37.738Z,11.60
2019-05-11T05:13:12.561Z,11.60
2019-05-11T05:15:43.996Z,11.60
2019-05-11T05:18:18.944Z,11.70
2019-05-11T05:20:47.688Z,11.80
2019-05-11T05:23:22.466Z,11.80
2019-05-11T05:25:57.095Z,11.80
2019-05-11T05:28:26.896Z,11.80
2019-05-11T05:30:55.664Z,11.90
2019-05-11T05:33:24.688Z,12.00
2019-05-11T05:35:57.568Z,12.00
2019-05-11T05:38:29.010Z,12.10
2019-05-11T05:41:03.511Z,12.10
2019-05-11T05:43:35.065Z,12.20
2019-05-11T05:46:07.128Z,12.30
2019-05-11T05:48:41.981Z,12.30
2019-05-11T05:51:16.529Z,12.40
2019-05-11T05:54:04.963Z,12.40
2019-05-11T05:56:39.483Z,12.50
2019-05-11T05:59:10.519Z,12.60
2019-05-11T06:01:39.513Z,12.70
2019-05-11T06:04:10.962Z,12.90
2019-05-11T06:06:45.688Z,12.90
2019-05-11T06:09:20.316Z,13.00
2019-05-11T06:11:49.069Z,13.10
2019-05-11T06:14:18.000Z,13.10
2019-05-11T06:16:46.863Z,13.20
2019-05-11T06:19:21.507Z,13.30
2019-05-11T06:21:56.108Z,13.40
2019-05-11T06:24:31.884Z,13.50
2019-05-11T06:27:01.780Z,13.50
2019-05-11T06:29:30.685Z,13.60
2019-05-11T06:32:02.238Z,13.70
2019-05-11T06:34:34.512Z,13.80
2019-05-11T06:37:05.493Z,13.90
2019-05-11T06:39:40.381Z,14.00
2019-05-11T06:42:11.318Z,14.20
2019-05-11T06:44:43.279Z,14.30
2019-05-11T06:47:13.172Z,14.40
2019-05-11T06:49:44.746Z,14.40
2019-05-11T06:52:19.473Z,14.50
2019-05-11T06:54:48.236Z,14.60
2019-05-11T06:57:22.764Z,14.70
2019-05-11T06:59:57.517Z,14.80
2019-05-11T07:02:26.328Z,15.00
2019-05-11T07:04:56.171Z,15.10
2019-05-11T07:07:28.288Z,15.20
2019-05-11T07:09:57.170Z,15.30
2019-05-11T07:12:28.725Z,15.40
2019-05-11T07:14:57.487Z,15.50
2019-05-11T07:17:32.442Z,15.60
2019-05-11T07:20:07.831Z,15.60
2019-05-11T07:22:38.726Z,15.70
2019-05-11T07:25:09.666Z,15.80
2019-05-11T07:27:41.606Z,15.80
2019-05-11T07:30:13.495Z,16.00
2019-05-11T07:32:45.288Z,16.10
2019-05-11T07:35:14.648Z,16.30
2019-05-11T07:37:47.722Z,16.40
2019-05-11T07:40:18.568Z,16.50
2019-05-11T07:42:48.791Z,16.70
2019-05-11T07:45:19.755Z,16.80
2019-05-11T07:47:48.772Z,16.80
2019-05-11T07:50:28.168Z,16.80
2019-05-11T07:52:58.895Z,16.90
2019-05-11T07:55:28.713Z,17.00
2019-05-11T07:58:03.402Z,17.20
2019-05-11T08:00:35.953Z,17.40
2019-05-11T08:03:03.878Z,17.50
2019-05-11T08:05:38.753Z,17.60
2019-05-11T08:08:13.514Z,17.60
2019-05-11T08:10:44.989Z,17.70
2019-05-11T08:13:13.876Z,17.60
2019-05-11T08:15:48.982Z,17.80
2019-05-11T08:18:20.056Z,17.80
2019-05-11T08:20:54.868Z,18.10
2019-05-11T08:23:30.533Z,18.20
2019-05-11T08:26:05.153Z,18.30
2019-05-11T08:28:39.885Z,18.40
2019-05-11T08:31:09.697Z,18.50
2019-05-11T08:33:38.975Z,18.60
2019-05-11T08:36:11.551Z,18.70
2019-05-11T08:38:43.452Z,18.80
2019-05-11T08:41:14.209Z,18.90
2019-05-11T08:43:43.140Z,18.90
2019-05-11T08:46:18.704Z,18.90
2019-05-11T08:48:53.537Z,18.90
2019-05-11T08:51:22.534Z,18.80
2019-05-11T08:53:52.454Z,18.70
2019-05-11T08:56:21.235Z,18.70
2019-05-11T08:58:55.189Z,18.60
2019-05-11T09:01:28.705Z,18.50
2019-05-11T09:03:59.681Z,18.40
2019-05-11T09:06:29.391Z,18.30
2019-05-11T09:09:01.352Z,18.20
2019-05-11T09:11:31.166Z,18.20
2019-05-11T09:13:59.932Z,18.20
2019-05-11T09:16:30.997Z,18.20
2019-05-11T09:19:02.430Z,18.10
2019-05-11T09:21:38.346Z,18.00
2019-05-11T09:24:08.506Z,17.80
2019-05-11T09:26:38.869Z,17.80
2019-05-11T09:29:08.655Z,17.80
2019-05-11T09:31:38.983Z,17.80
2019-05-11T09:34:09.127Z,17.70
2019-05-11T09:36:39.521Z,17.80
2019-05-11T09:39:11.617Z,17.80
2019-05-11T09:41:48.656Z,17.90
2019-05-11T09:44:18.296Z,18.00
2019-05-11T09:46:47.909Z,18.20
2019-05-11T09:49:43.855Z,18.30
2019-05-11T09:52:07.713Z,18.30
2019-05-11T09:54:39.041Z,18.30
2019-05-11T09:57:38.164Z,18.20
2019-05-11T10:00:09.789Z,18.30
2019-05-11T10:02:43.285Z,18.30
2019-05-11T10:05:18.876Z,18.40
2019-05-11T10:07:48.487Z,18.50
2019-05-11T10:10:23.556Z,18.50
2019-05-11T10:12:53.020Z,18.50
2019-05-11T10:15:22.077Z,18.50
2019-05-11T10:17:58.845Z,18.60
2019-05-11T10:20:28.683Z,18.60
2019-05-11T10:22:58.047Z,18.70
2019-05-11T10:25:28.804Z,18.60
2019-05-11T10:27:58.096Z,18.50
2019-05-11T10:30:28.060Z,18.50
2019-05-11T10:33:00.183Z,18.50
2019-05-11T10:35:32.324Z,18.50
2019-05-11T10:38:04.291Z,18.40
2019-05-11T10:40:35.763Z,18.30
2019-05-11T10:43:04.655Z,18.20
2019-05-11T10:45:39.353Z,18.20
2019-05-11T10:48:10.829Z,18.30
2019-05-11T10:50:42.777Z,18.20
2019-05-11T10:53:18.513Z,18.20
2019-05-11T10:55:48.005Z,18.10
2019-05-11T10:58:18.390Z,18.10
2019-05-11T11:01:22.986Z,18.10
2019-05-11T11:03:58.667Z,18.10
2019-05-11T11:06:28.287Z,18.10
2019-05-11T11:09:00.299Z,18.00
2019-05-11T11:11:35.052Z,18.00
2019-05-11T11:14:08.523Z,17.90
2019-05-11T11:16:42.841Z,17.80
2019-05-11T11:19:13.012Z,17.90
2019-05-11T11:21:50.897Z,17.90
2019-05-11T11:24:22.335Z,17.80
2019-05-11T11:26:51.219Z,17.80
2019-05-11T11:29:21.147Z,17.80
2019-05-11T11:31:51.065Z,17.70
2019-05-11T11:34:21.998Z,17.60
2019-05-11T11:36:52.071Z,17.70
2019-05-11T11:39:21.009Z,17.80
2019-05-11T11:41:50.821Z,17.80
2019-05-11T11:44:26.063Z,17.80
2019-05-11T11:46:58.775Z,17.70
2019-05-11T11:49:28.250Z,17.50
2019-05-11T11:52:03.178Z,17.50
2019-05-11T11:54:33.091Z,17.40
2019-05-11T11:57:03.924Z,17.30
2019-05-11T11:59:32.779Z,17.30
2019-05-11T12:02:01.808Z,17.30
2019-05-11T12:04:38.704Z,17.20
2019-05-11T12:07:12.567Z,17.10
2019-05-11T12:09:44.555Z,17.10
2019-05-11T12:12:19.281Z,17.20
2019-05-11T12:14:54.213Z,17.30
2019-05-11T12:17:28.843Z,17.40
2019-05-11T12:20:00.801Z,17.50
2019-05-11T12:22:32.228Z,17.50
2019-05-11T12:25:07.985Z,17.50
2019-05-11T12:27:38.940Z,17.50
2019-05-11T12:30:13.871Z,17.50
2019-05-11T12:32:48.731Z,17.50
2019-05-11T12:35:20.636Z,17.50
2019-05-11T12:37:52.635Z,17.50
2019-05-11T12:40:31.364Z,17.50
2019-05-11T12:43:00.216Z,17.30
2019-05-11T12:45:31.688Z,17.20
2019-05-11T12:48:01.706Z,17.10
2019-05-11T12:50:32.029Z,17.10
2019-05-11T12:53:02.804Z,17.10
2019-05-11T12:55:32.780Z,17.10
2019-05-11T12:58:08.571Z,17.00
2019-05-11T13:00:39.216Z,17.10
2019-05-11T13:03:11.235Z,17.10
2019-05-11T13:05:39.988Z,17.10
2019-05-11T13:08:14.742Z,17.10
2019-05-11T13:10:47.897Z,17.00
2019-05-11T13:13:18.168Z,17.10
2019-05-11T13:15:47.960Z,17.10
2019-05-11T13:18:18.621Z,17.10
2019-05-11T13:20:48.206Z,17.00
2019-05-11T13:23:23.242Z,17.00
2019-05-11T13:25:58.504Z,17.10
2019-05-11T13:28:48.671Z,17.10
2019-05-11T13:31:23.501Z,17.20
2019-05-11T13:33:52.369Z,17.00
2019-05-11T13:36:24.560Z,17.10
2019-05-11T13:38:53.449Z,17.10
2019-05-11T13:41:22.320Z,17.10
2019-05-11T13:43:52.310Z,17.10
2019-05-11T13:46:24.189Z,17.00
2019-05-11T13:48:58.919Z,16.90
2019-05-11T13:51:28.540Z,16.80
2019-05-11T13:53:59.595Z,16.80
2019-05-11T13:56:32.318Z,16.70
2019-05-11T13:59:10.639Z,16.70
2019-05-11T14:01:39.691Z,16.70
2019-05-11T14:04:08.673Z,16.70
2019-05-11T14:06:37.928Z,16.70
2019-05-11T14:09:08.813Z,16.60
2019-05-11T14:11:40.257Z,16.60
2019-05-11T14:14:12.201Z,16.60
2019-05-11T14:16:44.580Z,16.60
2019-05-11T14:19:17.967Z,16.60
2019-05-11T14:21:48.799Z,16.60
2019-05-11T14:24:19.640Z,16.50
2019-05-11T14:26:51.296Z,16.40
2019-05-11T14:29:28.111Z,16.30
2019-05-11T14:31:59.136Z,16.30
2019-05-11T14:34:28.741Z,16.30
2019-05-11T14:37:03.547Z,16.10
2019-05-11T14:39:32.566Z,15.90
2019-05-11T14:42:03.993Z,15.70
2019-05-11T14:44:37.636Z,15.50
2019-05-11T14:47:08.640Z,15.50
2019-05-11T14:49:43.279Z,15.70
2019-05-11T14:52:18.817Z,15.80
2019-05-11T14:54:53.632Z,15.90
2019-05-11T14:57:28.279Z,15.80
2019-05-11T14:59:59.831Z,15.70
2019-05-11T15:02:49.280Z,15.60
2019-05-11T15:05:18.507Z,15.60
2019-05-11T15:07:53.332Z,15.60
2019-05-11T15:10:24.890Z,15.50
2019-05-11T15:12:56.266Z,15.40
2019-05-11T15:15:25.099Z,15.30
2019-05-11T15:18:00.028Z,15.20
2019-05-11T15:20:31.506Z,15.00
2019-05-11T15:23:02.342Z,15.00
2019-05-11T15:25:38.206Z,14.90
2019-05-11T15:28:08.843Z,14.70
2019-05-11T15:30:39.050Z,14.50
2019-05-11T15:33:07.959Z,14.50
2019-05-11T15:35:37.931Z,14.50
2019-05-11T15:38:08.799Z,14.50
2019-05-11T15:40:41.062Z,14.50
2019-05-11T15:43:17.793Z,14.40
2019-05-11T15:45:49.468Z,14.30
2019-05-11T15:48:24.219Z,14.30
2019-05-11T15:50:57.698Z,14.20
2019-05-11T15:53:26.300Z,14.20
2019-05-11T15:55:59.596Z,14.20
2019-05-11T15:58:29.792Z,14.10
2019-05-11T16:01:04.442Z,14.10
2019-05-11T16:03:35.993Z,14.00
2019-05-11T16:06:08.026Z,13.90
2019-05-11T16:08:37.631Z,13.90
2019-05-11T16:11:12.495Z,13.90
2019-05-11T16:13:41.359Z,13.80
2019-05-11T16:16:34.442Z,13.80
2019-05-11T16:19:13.640Z,13.80
2019-05-11T16:21:42.366Z,13.90
2019-05-11T16:24:11.252Z,13.90
2019-05-11T16:26:47.523Z,13.90
2019-05-11T16:29:19.153Z,13.80
2019-05-11T16:31:50.809Z,13.80
2019-05-11T16:34:19.715Z,13.70
2019-05-11T16:36:54.647Z,13.70
2019-05-11T16:39:28.015Z,13.70
2019-05-11T16:41:58.163Z,13.60
2019-05-11T16:44:32.995Z,13.50
2019-05-11T16:47:04.446Z,13.40
2019-05-11T16:49:33.439Z,13.40
2019-05-11T16:52:10.139Z,13.40
2019-05-11T16:54:41.360Z,13.40
2019-05-11T16:57:13.527Z,13.30
2019-05-11T16:59:48.464Z,13.30
2019-05-11T17:02:20.116Z,13.20
2019-05-11T17:04:49.112Z,13.10
2019-05-11T17:07:23.937Z,13.00
2019-05-11T17:09:52.821Z,13.00
2019-05-11T17:12:21.820Z,12.90
2019-05-11T17:15:00.029Z,12.90
2019-05-11T17:17:34.769Z,12.90
2019-05-11T17:20:03.955Z,12.90
2019-05-11T17:22:34.772Z,12.90
2019-05-11T17:25:04.495Z,12.90
2019-05-11T17:27:33.386Z,12.80
2019-05-11T17:30:02.287Z,12.80
2019-05-11T17:32:38.355Z,12.80
2019-05-11T17:35:08.470Z,12.70
2019-05-11T17:37:39.497Z,12.70
2019-05-11T17:40:10.519Z,12.60
2019-05-11T17:42:40.555Z,12.60
2019-05-11T17:45:09.651Z,12.60
2019-05-11T17:47:38.855Z,12.50
2019-05-11T17:50:10.809Z,12.50
2019-05-11T17:52:39.832Z,12.40
2019-05-11T17:55:14.634Z,12.40
2019-05-11T17:57:48.898Z,12.30
2019-05-11T18:00:22.649Z,12.30
2019-05-11T18:02:52.672Z,12.20
2019-05-11T18:05:24.842Z,12.10
2019-05-11T18:08:00.384Z,12.00
2019-05-11T18:10:29.270Z,12.00
2019-05-11T18:13:03.980Z,11.90
2019-05-11T18:15:34.418Z,11.90
2019-05-11T18:18:09.626Z,11.90
2019-05-11T18:20:38.542Z,11.80
2019-05-11T18:23:13.082Z,11.80
2019-05-11T18:25:41.867Z,11.70
2019-05-11T18:28:14.330Z,11.70
2019-05-11T18:30:44.371Z,11.70
2019-05-11T18:33:15.780Z,11.60
2019-05-11T18:35:44.619Z,11.60
2019-05-11T18:38:13.435Z,11.50
2019-05-11T18:40:42.271Z,11.50
2019-05-11T18:43:14.166Z,11.50
2019-05-11T18:45:42.966Z,11.40
2019-05-11T18:48:11.750Z,11.40
2019-05-11T18:50:40.609Z,11.40
2019-05-11T18:53:09.697Z,11.40
2019-05-11T18:55:40.633Z,11.30
2019-05-11T18:58:18.173Z,11.40
2019-05-11T19:00:45.992Z,11.40
2019-05-11T19:03:15.806Z,11.40
2019-05-11T19:05:50.634Z,11.30
2019-05-11T19:08:20.552Z,11.30
2019-05-11T19:10:52.512Z,11.30
2019-05-11T19:13:21.608Z,11.30
2019-05-11T19:15:50.603Z,11.20
2019-05-11T19:18:25.329Z,11.20
2019-05-11T19:20:58.629Z,11.20
2019-05-11T19:23:28.743Z,11.10
2019-05-11T19:26:03.775Z,11.10
2019-05-11T19:28:35.225Z,11.10
2019-05-11T19:31:12.503Z,11.10
2019-05-11T19:33:48.930Z,11.00
2019-05-11T19:36:23.451Z,11.00
2019-05-11T19:38:52.393Z,11.00
2019-05-11T19:41:23.811Z,11.00
2019-05-11T19:43:57.697Z,11.00
2019-05-11T19:46:29.154Z,11.00
2019-05-11T19:49:04.163Z,11.00
2019-05-11T19:51:32.971Z,10.90
2019-05-11T19:54:01.804Z,10.90
2019-05-11T19:56:38.334Z,11.00
2019-05-11T19:59:08.567Z,11.00
2019-05-11T20:01:43.659Z,11.00
2019-05-11T20:04:14.502Z,10.90
2019-05-11T20:06:43.311Z,10.90
2019-05-11T20:09:12.155Z,10.90
2019-05-11T20:11:47.614Z,10.90
2019-05-11T20:14:19.805Z,11.00
2019-05-11T20:16:48.621Z,10.90
2019-05-11T20:19:18.733Z,11.00
2019-05-11T20:21:48.541Z,10.90
2019-05-11T20:24:25.112Z,10.90
2019-05-11T20:26:53.659Z,10.90
2019-05-11T20:29:22.485Z,10.90
2019-05-11T20:31:51.254Z,10.90
2019-05-11T20:34:20.106Z,10.80
2019-05-11T20:36:54.611Z,10.80
2019-05-11T20:39:28.656Z,10.80
2019-05-11T20:42:03.239Z,10.80
2019-05-11T20:44:32.283Z,10.80
2019-05-11T20:47:01.148Z,10.80
2019-05-11T20:49:32.807Z,10.80
2019-05-11T20:52:19.306Z,10.80
2019-05-11T20:54:51.680Z,10.70
2019-05-11T20:57:28.349Z,10.70
2019-05-11T21:00:02.667Z,10.70
2019-05-11T21:02:38.018Z,10.70
2019-05-11T21:05:10.486Z,10.60
2019-05-11T21:07:42.655Z,10.60
2019-05-11T21:10:11.746Z,10.50
2019-05-11T21:12:40.637Z,10.50
2019-05-11T21:15:10.842Z,10.60
2019-05-11T21:17:42.413Z,10.60
2019-05-11T21:20:11.808Z,10.50
2019-05-11T21:22:43.478Z,10.50
2019-05-11T21:25:18.314Z,10.50
2019-05-11T21:27:50.161Z,10.50
2019-05-11T21:30:22.123Z,10.50
2019-05-11T21:32:53.982Z,10.60
2019-05-11T21:35:23.997Z,10.60
2019-05-11T21:37:52.991Z,10.60
2019-05-11T21:40:25.567Z,10.60
2019-05-11T21:43:00.146Z,10.60
2019-05-11T21:45:28.970Z,10.50
2019-05-11T21:48:00.386Z,10.50
2019-05-11T21:50:29.194Z,10.50
2019-05-11T21:52:58.999Z,10.60
2019-05-11T21:55:33.963Z,10.60
2019-05-11T21:58:09.131Z,10.60
2019-05-11T22:00:38.817Z,10.60
2019-05-11T22:03:10.184Z,10.60
2019-05-11T22:05:44.475Z,10.60
2019-05-11T22:08:19.100Z,10.60
2019-05-11T22:10:50.654Z,10.60
2019-05-11T22:13:25.385Z,10.60
2019-05-11T22:15:58.139Z,10.60
2019-05-11T22:18:33.196Z,10.70
2019-05-11T22:21:08.627Z,10.70
2019-05-11T22:23:40.295Z,10.60
2019-05-11T22:26:09.288Z,10.60
2019-05-11T22:28:41.218Z,10.60
2019-05-11T22:31:12.654Z,10.60
2019-05-11T22:33:41.447Z,10.60
2019-05-11T22:36:16.319Z,10.60
2019-05-11T22:38:51.154Z,10.60
2019-05-11T22:41:23.462Z,10.60
2019-05-11T22:43:58.042Z,10.50
2019-05-11T22:46:28.187Z,10.50
2019-05-11T22:49:00.330Z,10.50
2019-05-11T22:51:30.248Z,10.50
2019-05-11T22:54:04.868Z,10.50
2019-05-11T22:56:33.659Z,10.50
2019-05-11T22:59:02.651Z,10.50
2019-05-11T23:01:37.940Z,10.50
2019-05-11T23:04:08.010Z,10.50
2019-05-11T23:06:40.267Z,10.50
2019-05-11T23:09:30.674Z,10.50
2019-05-11T23:12:02.124Z,10.50
2019-05-11T23:14:39.513Z,10.40
2019-05-11T23:17:11.070Z,10.40
2019-05-11T23:19:42.478Z,10.40
2019-05-11T23:22:11.386Z,10.40
2019-05-11T23:24:47.985Z,10.40
2019-05-11T23:27:18.102Z,10.40
2019-05-11T23:29:52.931Z,10.40
2019-05-11T23:32:27.759Z,10.40
2019-05-11T23:34:59.302Z,10.40
2019-05-11T23:37:29.330Z,10.40
2019-05-11T23:40:01.393Z,10.40
2019-05-11T23:42:33.459Z,10.30
2019-05-11T23:45:04.094Z,10.30
2019-05-11T23:47:36.154Z,10.30
2019-05-11T23:50:08.275Z,10.30
2019-05-11T23:52:38.102Z,10.30
2019-05-11T23:55:13.176Z,10.20
2019-05-11T23:57:42.977Z,10.20
